CHH7804 ZSQD-ZSPD
Flight info
| Callsign | CHH7804 |
|---|---|
| Flight time | 1h 4m |
| Altitude | 38100 |
| Route | JDW W103 TAO W174 AVLOK B221 ODULO UDOXI HSH |
| Aircraft | A339/H-SADE1E2E3GHIJ3J5M1P2RWXY/LB2D1 |
Departure
| Time | 2026-04-18 05:55 |
|---|---|
| Airport | Qingdao Jiaodong International Airport (ZSQD) |
Arrival
| Time | 2026-04-18 07:00 |
|---|---|
| Airport | Shanghai Pudong International Airport (ZSPD) |
| Time | Latitude | Longitude | Altitude | Speed | Heading |
|---|---|---|---|---|---|
| 2026-04-18 05:35 | 36.37356 | 120.08111 | 37 ft | 0 kts | 342° |
| 2026-04-18 05:47 | 36.37346 | 120.08116 | 37 ft | 2 kts | 313° |
| 2026-04-18 05:48 | 36.37339 | 120.08132 | 37 ft | 2 kts | 277° |
| 2026-04-18 05:48 | 36.37340 | 120.08151 | 37 ft | 2 kts | 248° |
| 2026-04-18 05:48 | 36.37346 | 120.08167 | 37 ft | 2 kts | 251° |
| 2026-04-18 05:48 | 36.37350 | 120.08186 | 37 ft | 2 kts | 254° |
| 2026-04-18 05:49 | 36.37354 | 120.08201 | 37 ft | 0 kts | 253° |
| 2026-04-18 05:49 | 36.37354 | 120.08202 | 37 ft | 0 kts | 253° |
| 2026-04-18 05:50 | 36.37354 | 120.08201 | 37 ft | 0 kts | 253° |
| 2026-04-18 05:50 | 36.37345 | 120.08182 | 37 ft | 5 kts | 236° |
| 2026-04-18 05:50 | 36.37294 | 120.08128 | 37 ft | 12 kts | 216° |
| 2026-04-18 05:51 | 36.37216 | 120.08115 | 37 ft | 11 kts | 168° |
| 2026-04-18 05:51 | 36.37153 | 120.08101 | 37 ft | 8 kts | 231° |
| 2026-04-18 05:51 | 36.37120 | 120.08028 | 37 ft | 10 kts | 249° |
| 2026-04-18 05:51 | 36.37091 | 120.07928 | 37 ft | 13 kts | 251° |
| 2026-04-18 05:52 | 36.37057 | 120.07803 | 37 ft | 18 kts | 252° |
| 2026-04-18 05:52 | 36.37012 | 120.07623 | 37 ft | 17 kts | 254° |
| 2026-04-18 05:52 | 36.37018 | 120.07526 | 37 ft | 8 kts | 328° |
| 2026-04-18 05:52 | 36.37092 | 120.07484 | 37 ft | 13 kts | 339° |
| 2026-04-18 05:53 | 36.37173 | 120.07427 | 37 ft | 13 kts | 293° |
| 2026-04-18 05:53 | 36.37163 | 120.07313 | 37 ft | 13 kts | 253° |
| 2026-04-18 05:53 | 36.37119 | 120.07210 | 37 ft | 14 kts | 236° |
| 2026-04-18 05:53 | 36.37063 | 120.07181 | 37 ft | 3 kts | 155° |
| 2026-04-18 05:54 | 36.37059 | 120.07183 | 37 ft | 1 kts | 160° |
| 2026-04-18 05:54 | 36.37017 | 120.07201 | 37 ft | 25 kts | 161° |
| 2026-04-18 05:54 | 36.36642 | 120.07348 | 37 ft | 87 kts | 162° |
| 2026-04-18 05:54 | 36.35889 | 120.07644 | 46 ft | 137 kts | 161° |
| 2026-04-18 05:55 | 36.34867 | 120.08051 | 194 ft | 165 kts | 160° |
| 2026-04-18 05:55 | 36.33741 | 120.08518 | 547 ft | 179 kts | 161° |
| 2026-04-18 05:55 | 36.32486 | 120.08998 | 906 ft | 199 kts | 162° |
| 2026-04-18 05:55 | 36.31140 | 120.09512 | 1232 ft | 206 kts | 162° |
| 2026-04-18 05:56 | 36.29713 | 120.10066 | 1615 ft | 226 kts | 162° |
| 2026-04-18 05:56 | 36.28160 | 120.10710 | 2055 ft | 243 kts | 154° |
| 2026-04-18 05:56 | 36.26843 | 120.12057 | 2552 ft | 257 kts | 123° |
| 2026-04-18 05:56 | 36.26218 | 120.14104 | 3297 ft | 259 kts | 94° |
| 2026-04-18 05:57 | 36.27015 | 120.18383 | 4850 ft | 261 kts | 71° |
| 2026-04-18 05:57 | 36.27587 | 120.20512 | 5598 ft | 263 kts | 72° |
| 2026-04-18 05:57 | 36.28154 | 120.22672 | 6326 ft | 265 kts | 72° |
| 2026-04-18 05:58 | 36.28714 | 120.24837 | 7008 ft | 268 kts | 73° |
| 2026-04-18 05:58 | 36.29283 | 120.27053 | 7658 ft | 271 kts | 73° |
| 2026-04-18 05:58 | 36.29846 | 120.29244 | 8341 ft | 273 kts | 73° |
| 2026-04-18 05:58 | 36.30268 | 120.31549 | 8985 ft | 274 kts | 90° |
| 2026-04-18 05:59 | 36.29908 | 120.33843 | 9656 ft | 276 kts | 114° |
| 2026-04-18 05:59 | 36.28822 | 120.35764 | 10319 ft | 279 kts | 136° |
| 2026-04-18 05:59 | 36.27133 | 120.37045 | 10705 ft | 295 kts | 158° |
| 2026-04-18 05:59 | 36.25120 | 120.37824 | 11005 ft | 312 kts | 160° |
| 2026-04-18 06:00 | 36.22996 | 120.38628 | 11312 ft | 328 kts | 160° |
| 2026-04-18 06:00 | 36.20755 | 120.39482 | 11577 ft | 344 kts | 160° |
| 2026-04-18 06:00 | 36.18438 | 120.40373 | 11851 ft | 359 kts | 160° |
| 2026-04-18 06:00 | 36.15997 | 120.41316 | 12137 ft | 374 kts | 161° |
| 2026-04-18 06:01 | 36.13467 | 120.42294 | 12663 ft | 382 kts | 161° |
| 2026-04-18 06:01 | 36.10916 | 120.43282 | 13299 ft | 387 kts | 161° |
| 2026-04-18 06:01 | 36.08367 | 120.44268 | 13901 ft | 390 kts | 161° |
| 2026-04-18 06:01 | 36.05741 | 120.45283 | 14536 ft | 394 kts | 161° |
| 2026-04-18 06:02 | 36.03155 | 120.46281 | 15141 ft | 397 kts | 161° |
| 2026-04-18 06:02 | 36.00487 | 120.47312 | 15820 ft | 399 kts | 160° |
| 2026-04-18 06:02 | 35.97865 | 120.48329 | 16441 ft | 401 kts | 160° |
| 2026-04-18 06:02 | 35.95229 | 120.49504 | 17055 ft | 403 kts | 156° |
| 2026-04-18 06:03 | 35.92640 | 120.50867 | 17671 ft | 406 kts | 154° |
| 2026-04-18 06:03 | 35.90045 | 120.52290 | 18263 ft | 409 kts | 154° |
| 2026-04-18 06:03 | 35.87445 | 120.53722 | 18837 ft | 412 kts | 154° |
| 2026-04-18 06:03 | 35.84837 | 120.55156 | 19409 ft | 415 kts | 154° |
| 2026-04-18 06:04 | 35.82182 | 120.56615 | 19962 ft | 419 kts | 154° |
| 2026-04-18 06:04 | 35.79519 | 120.58073 | 20488 ft | 422 kts | 154° |
| 2026-04-18 06:04 | 35.76815 | 120.59553 | 21032 ft | 425 kts | 154° |
| 2026-04-18 06:04 | 35.74145 | 120.61031 | 21493 ft | 429 kts | 152° |
| 2026-04-18 06:05 | 35.71482 | 120.62686 | 21961 ft | 431 kts | 149° |
| 2026-04-18 06:05 | 35.68840 | 120.64471 | 22408 ft | 435 kts | 149° |
| 2026-04-18 06:05 | 35.66159 | 120.66287 | 22859 ft | 438 kts | 149° |
| 2026-04-18 06:05 | 35.63504 | 120.68085 | 23313 ft | 441 kts | 149° |
| 2026-04-18 06:06 | 35.60788 | 120.69923 | 23738 ft | 444 kts | 149° |
| 2026-04-18 06:06 | 35.58058 | 120.71703 | 24111 ft | 448 kts | 155° |
| 2026-04-18 06:06 | 35.55019 | 120.72639 | 24391 ft | 457 kts | 175° |
| 2026-04-18 06:06 | 35.51849 | 120.72434 | 24825 ft | 460 kts | 184° |
| 2026-04-18 06:07 | 35.48663 | 120.72073 | 25254 ft | 462 kts | 184° |
| 2026-04-18 06:07 | 35.45441 | 120.71751 | 25638 ft | 464 kts | 184° |
| 2026-04-18 06:07 | 35.42179 | 120.71469 | 26010 ft | 467 kts | 183° |
| 2026-04-18 06:07 | 35.38946 | 120.71223 | 26375 ft | 469 kts | 183° |
| 2026-04-18 06:08 | 35.35633 | 120.70991 | 26730 ft | 471 kts | 183° |
| 2026-04-18 06:08 | 35.32362 | 120.70773 | 27086 ft | 473 kts | 184° |
| 2026-04-18 06:08 | 35.29048 | 120.70551 | 27426 ft | 475 kts | 184° |
| 2026-04-18 06:08 | 35.25745 | 120.70329 | 27748 ft | 477 kts | 184° |
| 2026-04-18 06:09 | 35.22463 | 120.70111 | 28069 ft | 479 kts | 184° |
| 2026-04-18 06:09 | 35.19127 | 120.69978 | 28451 ft | 480 kts | 180° |
| 2026-04-18 06:09 | 35.15811 | 120.70225 | 28930 ft | 478 kts | 174° |
| 2026-04-18 06:09 | 35.12539 | 120.70949 | 29419 ft | 477 kts | 167° |
| 2026-04-18 06:10 | 35.09353 | 120.72171 | 29877 ft | 476 kts | 161° |
| 2026-04-18 06:10 | 35.06303 | 120.73621 | 30302 ft | 475 kts | 160° |
| 2026-04-18 06:10 | 35.03254 | 120.75108 | 30711 ft | 474 kts | 160° |
| 2026-04-18 06:10 | 35.00149 | 120.76637 | 31119 ft | 473 kts | 160° |
| 2026-04-18 06:11 | 34.97118 | 120.78125 | 31504 ft | 472 kts | 160° |
| 2026-04-18 06:11 | 34.94080 | 120.79612 | 31867 ft | 472 kts | 160° |
| 2026-04-18 06:11 | 34.91021 | 120.81108 | 32242 ft | 471 kts | 160° |
| 2026-04-18 06:11 | 34.87989 | 120.82587 | 32609 ft | 470 kts | 160° |
| 2026-04-18 06:12 | 34.84967 | 120.84058 | 32983 ft | 468 kts | 160° |
| 2026-04-18 06:12 | 34.81935 | 120.85533 | 33377 ft | 467 kts | 160° |
| 2026-04-18 06:12 | 34.78922 | 120.86996 | 33766 ft | 465 kts | 160° |
| 2026-04-18 06:12 | 34.75946 | 120.88439 | 34083 ft | 464 kts | 161° |
| 2026-04-18 06:13 | 34.72950 | 120.89893 | 34340 ft | 463 kts | 161° |
| 2026-04-18 06:13 | 34.69942 | 120.91351 | 34591 ft | 463 kts | 161° |
| 2026-04-18 06:13 | 34.66987 | 120.92783 | 34853 ft | 462 kts | 161° |
| 2026-04-18 06:13 | 34.64006 | 120.94224 | 35066 ft | 461 kts | 161° |
| 2026-04-18 06:14 | 34.61001 | 120.95676 | 35268 ft | 461 kts | 162° |
| 2026-04-18 06:14 | 34.58026 | 120.97112 | 35477 ft | 461 kts | 162° |
| 2026-04-18 06:14 | 34.55056 | 120.98547 | 35710 ft | 460 kts | 162° |
| 2026-04-18 06:14 | 34.52087 | 120.99979 | 35965 ft | 460 kts | 162° |
| 2026-04-18 06:15 | 34.49130 | 121.01402 | 36205 ft | 459 kts | 162° |
| 2026-04-18 06:15 | 34.46162 | 121.02831 | 36429 ft | 459 kts | 163° |
| 2026-04-18 06:15 | 34.43196 | 121.04256 | 36616 ft | 460 kts | 163° |
| 2026-04-18 06:15 | 34.40242 | 121.05675 | 36792 ft | 461 kts | 163° |
| 2026-04-18 06:16 | 34.37205 | 121.07133 | 36874 ft | 464 kts | 163° |
| 2026-04-18 06:16 | 34.34221 | 121.08562 | 36993 ft | 466 kts | 163° |
| 2026-04-18 06:16 | 34.31228 | 121.09998 | 37284 ft | 464 kts | 163° |
| 2026-04-18 06:16 | 34.28249 | 121.11430 | 37706 ft | 458 kts | 164° |
| 2026-04-18 06:17 | 34.25298 | 121.12846 | 37972 ft | 457 kts | 164° |
| 2026-04-18 06:17 | 34.22327 | 121.14267 | 38078 ft | 459 kts | 164° |
| 2026-04-18 06:17 | 34.19359 | 121.15682 | 38140 ft | 462 kts | 164° |
| 2026-04-18 06:18 | 34.13380 | 121.18532 | 38134 ft | 463 kts | 164° |
| 2026-04-18 06:18 | 34.07382 | 121.21391 | 38135 ft | 461 kts | 164° |
| 2026-04-18 06:19 | 34.01429 | 121.24227 | 38133 ft | 461 kts | 165° |
| 2026-04-18 06:19 | 33.95456 | 121.27069 | 38134 ft | 460 kts | 165° |
| 2026-04-18 06:20 | 33.89476 | 121.29908 | 38126 ft | 460 kts | 165° |
| 2026-04-18 06:20 | 33.83540 | 121.32719 | 38127 ft | 460 kts | 165° |
| 2026-04-18 06:21 | 33.77568 | 121.35548 | 38111 ft | 460 kts | 165° |
| 2026-04-18 06:21 | 33.71629 | 121.38355 | 38117 ft | 459 kts | 165° |
| 2026-04-18 06:22 | 33.65659 | 121.41188 | 38112 ft | 461 kts | 165° |
| 2026-04-18 06:22 | 33.59761 | 121.44232 | 38114 ft | 463 kts | 164° |
| 2026-04-18 06:23 | 33.53844 | 121.47321 | 38120 ft | 463 kts | 164° |
| 2026-04-18 06:23 | 33.47939 | 121.50379 | 38102 ft | 461 kts | 164° |
| 2026-04-18 06:24 | 33.42032 | 121.53426 | 38105 ft | 462 kts | 164° |
| 2026-04-18 06:24 | 33.36118 | 121.56472 | 38102 ft | 462 kts | 165° |
| 2026-04-18 06:25 | 33.30186 | 121.59351 | 38104 ft | 456 kts | 168° |
| 2026-04-18 06:25 | 33.24156 | 121.61496 | 38114 ft | 450 kts | 174° |
| 2026-04-18 06:26 | 33.18063 | 121.62873 | 38105 ft | 443 kts | 180° |
| 2026-04-18 06:26 | 33.11964 | 121.63650 | 38108 ft | 441 kts | 182° |
| 2026-04-18 06:27 | 33.05860 | 121.64391 | 38105 ft | 440 kts | 182° |
| 2026-04-18 06:27 | 32.99705 | 121.65136 | 38112 ft | 447 kts | 182° |
| 2026-04-18 06:28 | 32.93472 | 121.65881 | 38107 ft | 454 kts | 182° |
| 2026-04-18 06:28 | 32.87125 | 121.66648 | 38101 ft | 461 kts | 182° |
| 2026-04-18 06:29 | 32.80726 | 121.67420 | 38111 ft | 466 kts | 182° |
| 2026-04-18 06:29 | 32.74285 | 121.68197 | 38110 ft | 466 kts | 182° |
| 2026-04-18 06:30 | 32.67837 | 121.68973 | 38105 ft | 465 kts | 182° |
| 2026-04-18 06:30 | 32.61407 | 121.69746 | 38088 ft | 467 kts | 183° |
| 2026-04-18 06:31 | 32.54920 | 121.70522 | 38096 ft | 466 kts | 183° |
| 2026-04-18 06:31 | 32.48488 | 121.71291 | 38109 ft | 465 kts | 183° |
| 2026-04-18 06:32 | 32.42049 | 121.72058 | 38099 ft | 465 kts | 183° |
| 2026-04-18 06:32 | 32.35634 | 121.72826 | 38100 ft | 466 kts | 183° |
| 2026-04-18 06:33 | 32.29158 | 121.73594 | 38099 ft | 466 kts | 183° |
| 2026-04-18 06:33 | 32.22747 | 121.74354 | 38112 ft | 464 kts | 183° |
| 2026-04-18 06:34 | 32.16288 | 121.75122 | 38109 ft | 463 kts | 184° |
| 2026-04-18 06:34 | 32.09875 | 121.75883 | 38103 ft | 464 kts | 184° |
| 2026-04-18 06:35 | 32.03472 | 121.76640 | 38099 ft | 465 kts | 184° |
| 2026-04-18 06:35 | 31.97016 | 121.77403 | 38114 ft | 465 kts | 184° |
| 2026-04-18 06:36 | 31.90602 | 121.78158 | 38088 ft | 465 kts | 184° |
| 2026-04-18 06:36 | 31.84153 | 121.78928 | 38112 ft | 464 kts | 184° |
| 2026-04-18 06:37 | 31.77738 | 121.79711 | 38091 ft | 464 kts | 184° |
| 2026-04-18 06:37 | 31.71281 | 121.80502 | 38106 ft | 466 kts | 183° |
| 2026-04-18 06:37 | 31.68088 | 121.81293 | 38092 ft | 482 kts | 173° |
| 2026-04-18 06:38 | 31.64898 | 121.82800 | 38101 ft | 498 kts | 163° |
| 2026-04-18 06:38 | 31.61932 | 121.84907 | 38106 ft | 513 kts | 154° |
| 2026-04-18 06:38 | 31.59176 | 121.87666 | 38036 ft | 524 kts | 144° |
| 2026-04-18 06:38 | 31.56796 | 121.90986 | 37648 ft | 537 kts | 134° |
| 2026-04-18 06:39 | 31.54913 | 121.94772 | 37083 ft | 550 kts | 122° |
| 2026-04-18 06:39 | 31.53595 | 121.99030 | 36477 ft | 562 kts | 111° |
| 2026-04-18 06:39 | 31.52728 | 122.03447 | 35914 ft | 563 kts | 108° |
| 2026-04-18 06:39 | 31.51934 | 122.07950 | 35360 ft | 562 kts | 107° |
| 2026-04-18 06:40 | 31.51148 | 122.12395 | 34846 ft | 558 kts | 107° |
| 2026-04-18 06:40 | 31.50335 | 122.16821 | 34279 ft | 556 kts | 108° |
| 2026-04-18 06:40 | 31.49503 | 122.21212 | 33774 ft | 551 kts | 108° |
| 2026-04-18 06:40 | 31.48669 | 122.25530 | 33353 ft | 546 kts | 109° |
| 2026-04-18 06:41 | 31.47825 | 122.29850 | 32951 ft | 540 kts | 109° |
| 2026-04-18 06:41 | 31.46995 | 122.34055 | 32398 ft | 538 kts | 109° |
| 2026-04-18 06:41 | 31.46048 | 122.38274 | 31689 ft | 533 kts | 117° |
| 2026-04-18 06:41 | 31.44319 | 122.41981 | 30877 ft | 515 kts | 136° |
| 2026-04-18 06:42 | 31.41765 | 122.44778 | 30127 ft | 493 kts | 155° |
| 2026-04-18 06:42 | 31.38742 | 122.46371 | 29376 ft | 471 kts | 173° |
| 2026-04-18 06:42 | 31.35585 | 122.46678 | 28582 ft | 452 kts | 192° |
| 2026-04-18 06:42 | 31.32619 | 122.45687 | 27838 ft | 436 kts | 211° |
| 2026-04-18 06:43 | 31.30278 | 122.43582 | 27168 ft | 426 kts | 230° |
| 2026-04-18 06:43 | 31.28814 | 122.40598 | 26686 ft | 419 kts | 251° |
| 2026-04-18 06:43 | 31.28450 | 122.37271 | 26227 ft | 420 kts | 270° |
| 2026-04-18 06:43 | 31.28991 | 122.33906 | 25712 ft | 424 kts | 281° |
| 2026-04-18 06:44 | 31.30108 | 122.30705 | 25143 ft | 431 kts | 292° |
| 2026-04-18 06:44 | 31.31859 | 122.27819 | 24546 ft | 442 kts | 307° |
| 2026-04-18 06:44 | 31.34285 | 122.25571 | 23986 ft | 455 kts | 324° |
| 2026-04-18 06:44 | 31.37215 | 122.24161 | 23600 ft | 457 kts | 334° |
| 2026-04-18 06:45 | 31.40010 | 122.22568 | 23205 ft | 437 kts | 317° |
| 2026-04-18 06:45 | 31.42024 | 122.20075 | 22847 ft | 415 kts | 296° |
| 2026-04-18 06:45 | 31.43028 | 122.17013 | 22468 ft | 398 kts | 275° |
| 2026-04-18 06:45 | 31.42910 | 122.13878 | 22077 ft | 386 kts | 253° |
| 2026-04-18 06:46 | 31.41712 | 122.11113 | 21687 ft | 380 kts | 231° |
| 2026-04-18 06:46 | 31.39656 | 122.09216 | 21289 ft | 381 kts | 208° |
| 2026-04-18 06:46 | 31.37104 | 122.08467 | 20919 ft | 386 kts | 186° |
| 2026-04-18 06:46 | 31.34433 | 122.08891 | 20558 ft | 393 kts | 166° |
| 2026-04-18 06:47 | 31.32033 | 122.10434 | 20212 ft | 400 kts | 146° |
| 2026-04-18 06:47 | 31.29893 | 122.12453 | 19593 ft | 387 kts | 152° |
| 2026-04-18 06:47 | 31.27530 | 122.13711 | 18908 ft | 366 kts | 174° |
| 2026-04-18 06:47 | 31.25105 | 122.13707 | 18305 ft | 343 kts | 199° |
| 2026-04-18 06:48 | 31.23045 | 122.12460 | 17754 ft | 326 kts | 225° |
| 2026-04-18 06:48 | 31.21823 | 122.10323 | 17201 ft | 316 kts | 252° |
| 2026-04-18 06:48 | 31.21353 | 122.07875 | 16696 ft | 306 kts | 254° |
| 2026-04-18 06:48 | 31.20507 | 122.05664 | 16278 ft | 301 kts | 238° |
| 2026-04-18 06:49 | 31.19448 | 122.03533 | 16021 ft | 297 kts | 244° |
| 2026-04-18 06:49 | 31.18571 | 122.01376 | 15806 ft | 293 kts | 245° |
| 2026-04-18 06:49 | 31.17703 | 121.99235 | 15580 ft | 289 kts | 244° |
| 2026-04-18 06:49 | 31.17009 | 121.97057 | 15275 ft | 286 kts | 263° |
| 2026-04-18 06:50 | 31.17305 | 121.94777 | 15005 ft | 289 kts | 294° |
| 2026-04-18 06:50 | 31.18614 | 121.93024 | 14754 ft | 295 kts | 326° |
| 2026-04-18 06:50 | 31.20531 | 121.92153 | 14541 ft | 297 kts | 343° |
| 2026-04-18 06:50 | 31.22553 | 121.91628 | 14350 ft | 293 kts | 344° |
| 2026-04-18 06:51 | 31.24527 | 121.91096 | 14163 ft | 289 kts | 342° |
| 2026-04-18 06:51 | 31.26496 | 121.90488 | 13644 ft | 298 kts | 341° |
| 2026-04-18 06:51 | 31.28534 | 121.89786 | 12946 ft | 313 kts | 341° |
| 2026-04-18 06:51 | 31.30646 | 121.89019 | 12246 ft | 326 kts | 341° |
| 2026-04-18 06:52 | 31.32858 | 121.88198 | 11533 ft | 338 kts | 341° |
| 2026-04-18 06:52 | 31.35142 | 121.87344 | 10760 ft | 348 kts | 341° |
| 2026-04-18 06:52 | 31.37472 | 121.86468 | 10014 ft | 356 kts | 341° |
| 2026-04-18 06:52 | 31.39801 | 121.85589 | 9256 ft | 348 kts | 342° |
| 2026-04-18 06:53 | 31.42048 | 121.84739 | 8500 ft | 338 kts | 342° |
| 2026-04-18 06:53 | 31.44213 | 121.83780 | 7747 ft | 331 kts | 329° |
| 2026-04-18 06:53 | 31.45859 | 121.81931 | 7009 ft | 327 kts | 301° |
| 2026-04-18 06:53 | 31.46518 | 121.79459 | 6274 ft | 326 kts | 273° |
| 2026-04-18 06:54 | 31.46073 | 121.76893 | 5529 ft | 325 kts | 244° |
| 2026-04-18 06:54 | 31.44696 | 121.74829 | 4795 ft | 322 kts | 226° |
| 2026-04-18 06:54 | 31.43268 | 121.72837 | 4040 ft | 318 kts | 238° |
| 2026-04-18 06:54 | 31.41901 | 121.70803 | 3344 ft | 315 kts | 219° |
| 2026-04-18 06:55 | 31.39987 | 121.69782 | 2981 ft | 300 kts | 185° |
| 2026-04-18 06:55 | 31.38017 | 121.70099 | 2934 ft | 271 kts | 150° |
| 2026-04-18 06:55 | 31.36693 | 121.71469 | 2966 ft | 251 kts | 121° |
| 2026-04-18 06:55 | 31.35645 | 121.73122 | 2962 ft | 255 kts | 134° |
| 2026-04-18 06:56 | 31.34242 | 121.74332 | 2952 ft | 241 kts | 149° |
| 2026-04-18 06:56 | 31.32772 | 121.75163 | 2714 ft | 234 kts | 155° |
| 2026-04-18 06:56 | 31.31288 | 121.75837 | 2648 ft | 217 kts | 158° |
| 2026-04-18 06:56 | 31.29888 | 121.76395 | 2714 ft | 207 kts | 160° |
| 2026-04-18 06:57 | 31.28538 | 121.76903 | 2550 ft | 199 kts | 159° |
| 2026-04-18 06:57 | 31.25913 | 121.77884 | 2033 ft | 194 kts | 160° |
| 2026-04-18 06:57 | 31.24659 | 121.78355 | 1773 ft | 187 kts | 159° |
| 2026-04-18 06:58 | 31.23434 | 121.78818 | 1517 ft | 179 kts | 159° |
| 2026-04-18 06:58 | 31.22266 | 121.79258 | 1289 ft | 173 kts | 159° |
| 2026-04-18 06:58 | 31.21133 | 121.79686 | 1063 ft | 167 kts | 160° |
| 2026-04-18 06:58 | 31.20021 | 121.80105 | 864 ft | 166 kts | 159° |
| 2026-04-18 06:59 | 31.18942 | 121.80512 | 649 ft | 162 kts | 159° |
| 2026-04-18 06:59 | 31.17860 | 121.80921 | 436 ft | 162 kts | 161° |
| 2026-04-18 06:59 | 31.16780 | 121.81316 | 236 ft | 160 kts | 160° |
| 2026-04-18 06:59 | 31.15736 | 121.81719 | 35 ft | 156 kts | 160° |
| 2026-04-18 07:00 | 31.14891 | 121.82053 | 30 ft | 88 kts | 165° |
| 2026-04-18 07:00 | 31.14581 | 121.82162 | 30 ft | 15 kts | 160° |
| 2026-04-18 07:00 | 31.14490 | 121.82200 | 30 ft | 10 kts | 185° |
| 2026-04-18 07:00 | 31.14423 | 121.82188 | 30 ft | 8 kts | 188° |